sensor_id;sensor_type;location;lat;lon;timestamp;temperature;humidity
29803;DHT22;16702;50.898;4.662;2022-10-18T00:00:12;17.60;99.90
29803;DHT22;16702;50.898;4.662;2022-10-18T00:02:43;17.50;99.90
29803;DHT22;16702;50.898;4.662;2022-10-18T00:05:16;17.50;99.90
29803;DHT22;16702;50.898;4.662;2022-10-18T00:07:46;17.50;99.90
29803;DHT22;16702;50.898;4.662;2022-10-18T00:10:17;17.60;99.90
29803;DHT22;16702;50.898;4.662;2022-10-18T00:12:47;17.50;99.90
29803;DHT22;16702;50.898;4.662;2022-10-18T00:15:17;17.50;99.90
29803;DHT22;16702;50.898;4.662;2022-10-18T00:17:48;17.50;99.90
29803;DHT22;16702;50.898;4.662;2022-10-18T00:20:21;17.50;99.90
29803;DHT22;16702;50.898;4.662;2022-10-18T00:22:51;17.50;99.90
29803;DHT22;16702;50.898;4.662;2022-10-18T00:25:22;17.50;99.90
29803;DHT22;16702;50.898;4.662;2022-10-18T00:27:52;17.50;99.90
29803;DHT22;16702;50.898;4.662;2022-10-18T00:30:23;17.50;99.90
29803;DHT22;16702;50.898;4.662;2022-10-18T00:32:54;17.50;99.90
29803;DHT22;16702;50.898;4.662;2022-10-18T00:35:27;17.50;99.90
29803;DHT22;16702;50.898;4.662;2022-10-18T00:37:57;17.50;99.90
29803;DHT22;16702;50.898;4.662;2022-10-18T00:40:27;17.50;99.90
29803;DHT22;16702;50.898;4.662;2022-10-18T00:42:57;17.50;99.90
29803;DHT22;16702;50.898;4.662;2022-10-18T00:45:28;17.50;99.90
29803;DHT22;16702;50.898;4.662;2022-10-18T00:48:00;17.50;99.90
29803;DHT22;16702;50.898;4.662;2022-10-18T00:50:34;17.50;99.90
29803;DHT22;16702;50.898;4.662;2022-10-18T00:53:08;17.50;99.90
29803;DHT22;16702;50.898;4.662;2022-10-18T00:55:41;17.50;99.90
29803;DHT22;16702;50.898;4.662;2022-10-18T00:58:13;17.50;99.90
29803;DHT22;16702;50.898;4.662;2022-10-18T01:00:44;17.50;99.90
29803;DHT22;16702;50.898;4.662;2022-10-18T01:03:14;17.50;99.90
29803;DHT22;16702;50.898;4.662;2022-10-18T01:05:48;17.50;99.90
29803;DHT22;16702;50.898;4.662;2022-10-18T01:08:31;17.50;99.90
29803;DHT22;16702;50.898;4.662;2022-10-18T01:11:16;17.50;99.90
29803;DHT22;16702;50.898;4.662;2022-10-18T01:13:59;17.40;99.90
29803;DHT22;16702;50.898;4.662;2022-10-18T01:16:35;17.40;99.90
29803;DHT22;16702;50.898;4.662;2022-10-18T01:22:10;17.50;99.90
29803;DHT22;16702;50.898;4.662;2022-10-18T01:24:58;17.50;99.90
29803;DHT22;16702;50.898;4.662;2022-10-18T01:27:42;17.50;99.90
29803;DHT22;16702;50.898;4.662;2022-10-18T01:33:24;17.40;99.90
29803;DHT22;16702;50.898;4.662;2022-10-18T01:36:01;17.50;99.90
29803;DHT22;16702;50.898;4.662;2022-10-18T01:38:33;17.50;99.90
29803;DHT22;16702;50.898;4.662;2022-10-18T01:41:05;17.50;99.90
29803;DHT22;16702;50.898;4.662;2022-10-18T01:43:42;17.50;99.90
29803;DHT22;16702;50.898;4.662;2022-10-18T01:46:21;17.50;99.90
29803;DHT22;16702;50.898;4.662;2022-10-18T01:48:53;17.50;99.90
29803;DHT22;16702;50.898;4.662;2022-10-18T01:51:25;17.50;99.90
29803;DHT22;16702;50.898;4.662;2022-10-18T01:53:55;17.50;99.90
29803;DHT22;16702;50.898;4.662;2022-10-18T01:56:34;17.40;99.90
29803;DHT22;16702;50.898;4.662;2022-10-18T01:59:22;17.40;99.90
29803;DHT22;16702;50.898;4.662;2022-10-18T02:02:05;17.40;99.90
29803;DHT22;16702;50.898;4.662;2022-10-18T02:04:41;17.40;99.90
29803;DHT22;16702;50.898;4.662;2022-10-18T02:07:20;17.40;99.90
29803;DHT22;16702;50.898;4.662;2022-10-18T02:09:58;17.40;99.90
29803;DHT22;16702;50.898;4.662;2022-10-18T02:12:33;17.40;99.90
29803;DHT22;16702;50.898;4.662;2022-10-18T02:15:05;17.40;99.90
29803;DHT22;16702;50.898;4.662;2022-10-18T02:17:39;17.40;99.90
29803;DHT22;16702;50.898;4.662;2022-10-18T02:20:10;17.40;99.90
29803;DHT22;16702;50.898;4.662;2022-10-18T02:22:43;17.40;99.90
29803;DHT22;16702;50.898;4.662;2022-10-18T02:25:18;17.30;99.90
29803;DHT22;16702;50.898;4.662;2022-10-18T02:27:53;17.40;99.90
29803;DHT22;16702;50.898;4.662;2022-10-18T02:30:29;17.40;99.90
29803;DHT22;16702;50.898;4.662;2022-10-18T02:33:06;17.40;99.90
29803;DHT22;16702;50.898;4.662;2022-10-18T02:35:42;17.30;99.90
29803;DHT22;16702;50.898;4.662;2022-10-18T02:38:15;17.30;99.90
29803;DHT22;16702;50.898;4.662;2022-10-18T02:40:46;17.30;99.90
29803;DHT22;16702;50.898;4.662;2022-10-18T02:43:16;17.30;99.90
29803;DHT22;16702;50.898;4.662;2022-10-18T02:45:47;17.30;99.90
29803;DHT22;16702;50.898;4.662;2022-10-18T02:48:20;17.30;99.90
29803;DHT22;16702;50.898;4.662;2022-10-18T02:50:50;17.30;99.90
29803;DHT22;16702;50.898;4.662;2022-10-18T02:53:20;17.30;99.90
29803;DHT22;16702;50.898;4.662;2022-10-18T02:55:51;17.30;99.90
29803;DHT22;16702;50.898;4.662;2022-10-18T02:58:21;17.30;99.90
29803;DHT22;16702;50.898;4.662;2022-10-18T03:00:51;17.30;99.90
29803;DHT22;16702;50.898;4.662;2022-10-18T03:03:24;17.30;99.90
29803;DHT22;16702;50.898;4.662;2022-10-18T03:05:55;17.30;99.90
29803;DHT22;16702;50.898;4.662;2022-10-18T03:08:25;17.20;99.90
29803;DHT22;16702;50.898;4.662;2022-10-18T03:10:55;17.20;99.90
29803;DHT22;16702;50.898;4.662;2022-10-18T03:13:25;17.30;99.90
29803;DHT22;16702;50.898;4.662;2022-10-18T03:15:56;17.30;99.90
29803;DHT22;16702;50.898;4.662;2022-10-18T03:18:28;17.30;99.90
29803;DHT22;16702;50.898;4.662;2022-10-18T03:21:03;17.30;99.90
29803;DHT22;16702;50.898;4.662;2022-10-18T03:23:33;17.20;99.90
29803;DHT22;16702;50.898;4.662;2022-10-18T03:26:04;17.30;99.90
29803;DHT22;16702;50.898;4.662;2022-10-18T03:28:34;17.20;99.90
29803;DHT22;16702;50.898;4.662;2022-10-18T03:31:05;17.30;99.90
29803;DHT22;16702;50.898;4.662;2022-10-18T03:33:38;17.30;99.90
29803;DHT22;16702;50.898;4.662;2022-10-18T03:36:08;17.20;99.90
29803;DHT22;16702;50.898;4.662;2022-10-18T03:38:38;17.30;99.90
29803;DHT22;16702;50.898;4.662;2022-10-18T03:41:09;17.30;99.90
29803;DHT22;16702;50.898;4.662;2022-10-18T03:43:39;17.30;99.90
29803;DHT22;16702;50.898;4.662;2022-10-18T03:46:09;17.30;99.90
29803;DHT22;16702;50.898;4.662;2022-10-18T03:48:42;17.20;99.90
29803;DHT22;16702;50.898;4.662;2022-10-18T03:51:13;17.20;99.90
29803;DHT22;16702;50.898;4.662;2022-10-18T03:53:43;17.30;99.90
29803;DHT22;16702;50.898;4.662;2022-10-18T03:56:13;17.30;99.90
29803;DHT22;16702;50.898;4.662;2022-10-18T03:58:43;17.20;99.90
29803;DHT22;16702;50.898;4.662;2022-10-18T04:01:14;17.20;99.90
29803;DHT22;16702;50.898;4.662;2022-10-18T04:03:47;17.20;99.90
29803;DHT22;16702;50.898;4.662;2022-10-18T04:06:17;17.20;99.90
29803;DHT22;16702;50.898;4.662;2022-10-18T04:08:47;17.20;99.90
29803;DHT22;16702;50.898;4.662;2022-10-18T04:11:18;17.20;99.90
29803;DHT22;16702;50.898;4.662;2022-10-18T04:13:48;17.20;99.90
29803;DHT22;16702;50.898;4.662;2022-10-18T04:16:19;17.20;99.90
29803;DHT22;16702;50.898;4.662;2022-10-18T04:18:52;17.20;99.90
29803;DHT22;16702;50.898;4.662;2022-10-18T04:21:22;17.20;99.90
29803;DHT22;16702;50.898;4.662;2022-10-18T04:23:52;17.20;99.90
29803;DHT22;16702;50.898;4.662;2022-10-18T04:26:23;17.20;99.90
29803;DHT22;16702;50.898;4.662;2022-10-18T04:28:53;17.20;99.90
29803;DHT22;16702;50.898;4.662;2022-10-18T04:31:23;17.20;99.90
29803;DHT22;16702;50.898;4.662;2022-10-18T04:33:56;17.20;99.90
29803;DHT22;16702;50.898;4.662;2022-10-18T04:36:28;17.20;99.90
29803;DHT22;16702;50.898;4.662;2022-10-18T04:38:59;17.30;99.90
29803;DHT22;16702;50.898;4.662;2022-10-18T04:41:29;17.20;99.90
29803;DHT22;16702;50.898;4.662;2022-10-18T04:43:59;17.20;99.90
29803;DHT22;16702;50.898;4.662;2022-10-18T04:46:29;17.20;99.90
29803;DHT22;16702;50.898;4.662;2022-10-18T04:49:02;17.20;99.90
29803;DHT22;16702;50.898;4.662;2022-10-18T04:51:33;17.20;99.90
29803;DHT22;16702;50.898;4.662;2022-10-18T04:54:03;17.20;99.90
29803;DHT22;16702;50.898;4.662;2022-10-18T04:56:34;17.20;99.90
29803;DHT22;16702;50.898;4.662;2022-10-18T04:59:04;17.20;99.90
29803;DHT22;16702;50.898;4.662;2022-10-18T05:01:34;17.20;99.90
29803;DHT22;16702;50.898;4.662;2022-10-18T05:04:07;17.20;99.90
29803;DHT22;16702;50.898;4.662;2022-10-18T05:06:38;17.20;99.90
29803;DHT22;16702;50.898;4.662;2022-10-18T05:09:08;17.10;99.90
29803;DHT22;16702;50.898;4.662;2022-10-18T05:11:39;17.20;99.90
29803;DHT22;16702;50.898;4.662;2022-10-18T05:14:09;17.20;99.90
29803;DHT22;16702;50.898;4.662;2022-10-18T05:16:39;17.20;99.90
29803;DHT22;16702;50.898;4.662;2022-10-18T05:19:12;17.20;99.90
29803;DHT22;16702;50.898;4.662;2022-10-18T05:21:43;17.10;99.90
29803;DHT22;16702;50.898;4.662;2022-10-18T05:24:13;17.20;99.90
29803;DHT22;16702;50.898;4.662;2022-10-18T05:26:43;17.20;99.90
29803;DHT22;16702;50.898;4.662;2022-10-18T05:29:14;17.20;99.90
29803;DHT22;16702;50.898;4.662;2022-10-18T05:31:44;17.20;99.90
29803;DHT22;16702;50.898;4.662;2022-10-18T05:34:17;17.20;99.90
29803;DHT22;16702;50.898;4.662;2022-10-18T05:36:48;17.10;99.90
29803;DHT22;16702;50.898;4.662;2022-10-18T05:39:18;17.20;99.90
29803;DHT22;16702;50.898;4.662;2022-10-18T05:41:48;17.10;99.90
29803;DHT22;16702;50.898;4.662;2022-10-18T05:44:19;17.10;99.90
29803;DHT22;16702;50.898;4.662;2022-10-18T05:46:49;17.10;99.90
29803;DHT22;16702;50.898;4.662;2022-10-18T05:49:22;17.20;99.90
29803;DHT22;16702;50.898;4.662;2022-10-18T05:51:52;17.10;99.90
29803;DHT22;16702;50.898;4.662;2022-10-18T05:54:23;17.10;99.90
29803;DHT22;16702;50.898;4.662;2022-10-18T05:56:53;17.10;99.90
29803;DHT22;16702;50.898;4.662;2022-10-18T05:59:23;17.10;99.90
29803;DHT22;16702;50.898;4.662;2022-10-18T06:01:54;17.10;99.90
29803;DHT22;16702;50.898;4.662;2022-10-18T06:04:27;17.10;99.90
29803;DHT22;16702;50.898;4.662;2022-10-18T06:06:57;17.00;99.90
29803;DHT22;16702;50.898;4.662;2022-10-18T06:09:28;17.00;99.90
29803;DHT22;16702;50.898;4.662;2022-10-18T06:11:58;17.00;99.90
29803;DHT22;16702;50.898;4.662;2022-10-18T06:14:28;17.00;99.90
29803;DHT22;16702;50.898;4.662;2022-10-18T06:16:59;17.00;99.90
29803;DHT22;16702;50.898;4.662;2022-10-18T06:19:31;16.90;99.90
29803;DHT22;16702;50.898;4.662;2022-10-18T06:22:02;16.90;99.90
29803;DHT22;16702;50.898;4.662;2022-10-18T06:24:32;16.90;99.90
29803;DHT22;16702;50.898;4.662;2022-10-18T06:27:03;16.90;99.90
29803;DHT22;16702;50.898;4.662;2022-10-18T06:29:35;16.90;99.90
29803;DHT22;16702;50.898;4.662;2022-10-18T06:32:07;16.90;99.90
29803;DHT22;16702;50.898;4.662;2022-10-18T06:34:40;16.90;99.90
29803;DHT22;16702;50.898;4.662;2022-10-18T06:37:10;16.90;99.90
29803;DHT22;16702;50.898;4.662;2022-10-18T06:39:40;16.90;99.90
29803;DHT22;16702;50.898;4.662;2022-10-18T06:42:11;16.90;99.90
29803;DHT22;16702;50.898;4.662;2022-10-18T06:44:45;16.80;99.90
29803;DHT22;16702;50.898;4.662;2022-10-18T06:47:16;16.80;99.90
29803;DHT22;16702;50.898;4.662;2022-10-18T06:49:48;16.80;99.90
29803;DHT22;16702;50.898;4.662;2022-10-18T06:52:19;16.80;99.90
29803;DHT22;16702;50.898;4.662;2022-10-18T06:54:51;16.80;99.90
29803;DHT22;16702;50.898;4.662;2022-10-18T06:57:22;16.80;99.90
29803;DHT22;16702;50.898;4.662;2022-10-18T06:59:52;16.80;99.90
29803;DHT22;16702;50.898;4.662;2022-10-18T07:02:22;16.90;99.90
29803;DHT22;16702;50.898;4.662;2022-10-18T07:04:55;16.80;99.90
29803;DHT22;16702;50.898;4.662;2022-10-18T07:07:25;16.80;99.90
29803;DHT22;16702;50.898;4.662;2022-10-18T07:09:58;16.80;99.90
29803;DHT22;16702;50.898;4.662;2022-10-18T07:12:28;16.80;99.90
29803;DHT22;16702;50.898;4.662;2022-10-18T07:14:59;16.80;99.90
29803;DHT22;16702;50.898;4.662;2022-10-18T07:17:35;16.80;99.90
29803;DHT22;16702;50.898;4.662;2022-10-18T07:20:09;16.80;99.90
29803;DHT22;16702;50.898;4.662;2022-10-18T07:22:39;16.80;99.90
29803;DHT22;16702;50.898;4.662;2022-10-18T07:25:10;16.80;99.90
29803;DHT22;16702;50.898;4.662;2022-10-18T07:27:41;16.80;99.90
29803;DHT22;16702;50.898;4.662;2022-10-18T07:30:12;16.80;99.90
29803;DHT22;16702;50.898;4.662;2022-10-18T07:32:42;16.80;99.90
29803;DHT22;16702;50.898;4.662;2022-10-18T07:35:15;16.70;99.90
29803;DHT22;16702;50.898;4.662;2022-10-18T07:37:45;16.70;99.90
29803;DHT22;16702;50.898;4.662;2022-10-18T07:40:16;16.70;99.90
29803;DHT22;16702;50.898;4.662;2022-10-18T07:42:46;16.70;99.90
29803;DHT22;16702;50.898;4.662;2022-10-18T07:45:17;16.60;99.90
29803;DHT22;16702;50.898;4.662;2022-10-18T07:47:47;16.60;99.90
29803;DHT22;16702;50.898;4.662;2022-10-18T07:50:25;16.60;99.90
29803;DHT22;16702;50.898;4.662;2022-10-18T07:52:55;16.60;99.90
29803;DHT22;16702;50.898;4.662;2022-10-18T07:55:26;16.60;99.90
29803;DHT22;16702;50.898;4.662;2022-10-18T07:57:56;16.70;99.90
29803;DHT22;16702;50.898;4.662;2022-10-18T08:00:28;16.60;99.90
29803;DHT22;16702;50.898;4.662;2022-10-18T08:02:59;16.60;99.90
29803;DHT22;16702;50.898;4.662;2022-10-18T08:05:32;16.70;99.90
29803;DHT22;16702;50.898;4.662;2022-10-18T08:08:02;16.70;99.90
29803;DHT22;16702;50.898;4.662;2022-10-18T08:10:34;16.70;99.90
29803;DHT22;16702;50.898;4.662;2022-10-18T08:13:05;16.70;99.90
29803;DHT22;16702;50.898;4.662;2022-10-18T08:15:35;16.70;99.90
29803;DHT22;16702;50.898;4.662;2022-10-18T08:18:06;16.80;99.90
29803;DHT22;16702;50.898;4.662;2022-10-18T08:20:41;16.80;99.90
29803;DHT22;16702;50.898;4.662;2022-10-18T08:23:12;16.90;99.90
29803;DHT22;16702;50.898;4.662;2022-10-18T08:25:42;16.90;99.90
29803;DHT22;16702;50.898;4.662;2022-10-18T08:28:12;16.90;99.90
29803;DHT22;16702;50.898;4.662;2022-10-18T08:30:43;16.90;99.90
29803;DHT22;16702;50.898;4.662;2022-10-18T08:33:14;16.90;99.90
29803;DHT22;16702;50.898;4.662;2022-10-18T08:35:56;16.90;99.90
29803;DHT22;16702;50.898;4.662;2022-10-18T08:38:28;17.00;99.90
29803;DHT22;16702;50.898;4.662;2022-10-18T08:41:00;17.00;99.90
29803;DHT22;16702;50.898;4.662;2022-10-18T08:43:34;17.00;99.90
29803;DHT22;16702;50.898;4.662;2022-10-18T08:46:08;17.00;99.90
29803;DHT22;16702;50.898;4.662;2022-10-18T08:48:43;17.00;99.90
29803;DHT22;16702;50.898;4.662;2022-10-18T08:51:23;17.00;99.90
29803;DHT22;16702;50.898;4.662;2022-10-18T08:54:02;17.10;99.90
29803;DHT22;16702;50.898;4.662;2022-10-18T08:56:34;17.10;99.90
29803;DHT22;16702;50.898;4.662;2022-10-18T08:59:07;17.10;99.90
29803;DHT22;16702;50.898;4.662;2022-10-18T09:01:43;17.10;99.90
29803;DHT22;16702;50.898;4.662;2022-10-18T09:04:30;17.20;99.90
29803;DHT22;16702;50.898;4.662;2022-10-18T09:10:20;17.20;99.90
29803;DHT22;16702;50.898;4.662;2022-10-18T09:15:58;17.20;99.90
29803;DHT22;16702;50.898;4.662;2022-10-18T09:18:43;17.30;99.90
29803;DHT22;16702;50.898;4.662;2022-10-18T09:21:19;17.30;99.90
29803;DHT22;16702;50.898;4.662;2022-10-18T09:23:58;17.30;99.90
29803;DHT22;16702;50.898;4.662;2022-10-18T09:26:37;17.40;99.90
29803;DHT22;16702;50.898;4.662;2022-10-18T09:29:29;17.40;99.90
29803;DHT22;16702;50.898;4.662;2022-10-18T09:32:14;17.40;99.90
29803;DHT22;16702;50.898;4.662;2022-10-18T09:34:51;17.40;99.90
29803;DHT22;16702;50.898;4.662;2022-10-18T09:37:23;17.50;99.90
29803;DHT22;16702;50.898;4.662;2022-10-18T09:40:04;17.50;99.90
29803;DHT22;16702;50.898;4.662;2022-10-18T09:42:39;17.60;99.90
29803;DHT22;16702;50.898;4.662;2022-10-18T09:45:21;17.50;99.90
29803;DHT22;16702;50.898;4.662;2022-10-18T09:47:59;17.60;99.90
29803;DHT22;16702;50.898;4.662;2022-10-18T09:50:35;17.60;99.90
29803;DHT22;16702;50.898;4.662;2022-10-18T09:53:14;17.50;99.90
29803;DHT22;16702;50.898;4.662;2022-10-18T09:55:56;17.50;99.90
29803;DHT22;16702;50.898;4.662;2022-10-18T09:58:40;17.50;99.90
29803;DHT22;16702;50.898;4.662;2022-10-18T10:01:15;17.50;99.90
29803;DHT22;16702;50.898;4.662;2022-10-18T10:03:48;17.50;99.90
29803;DHT22;16702;50.898;4.662;2022-10-18T10:06:24;17.60;99.90
29803;DHT22;16702;50.898;4.662;2022-10-18T10:09:00;17.70;99.90
29803;DHT22;16702;50.898;4.662;2022-10-18T10:11:38;17.80;99.90
29803;DHT22;16702;50.898;4.662;2022-10-18T10:14:15;17.80;99.90
29803;DHT22;16702;50.898;4.662;2022-10-18T10:16:51;17.80;99.90
29803;DHT22;16702;50.898;4.662;2022-10-18T10:19:27;17.90;99.90
29803;DHT22;16702;50.898;4.662;2022-10-18T10:22:04;18.00;99.90
29803;DHT22;16702;50.898;4.662;2022-10-18T10:24:44;18.10;99.90
29803;DHT22;16702;50.898;4.662;2022-10-18T10:27:27;18.10;99.90
29803;DHT22;16702;50.898;4.662;2022-10-18T10:30:00;18.10;99.90
29803;DHT22;16702;50.898;4.662;2022-10-18T10:32:45;18.20;99.90
29803;DHT22;16702;50.898;4.662;2022-10-18T10:35:20;18.20;99.90
29803;DHT22;16702;50.898;4.662;2022-10-18T10:38:22;18.10;99.90
29803;DHT22;16702;50.898;4.662;2022-10-18T10:40:53;18.20;99.90
29803;DHT22;16702;50.898;4.662;2022-10-18T10:43:27;18.20;99.90
29803;DHT22;16702;50.898;4.662;2022-10-18T10:46:07;18.40;99.90
29803;DHT22;16702;50.898;4.662;2022-10-18T10:48:47;18.40;99.90
29803;DHT22;16702;50.898;4.662;2022-10-18T10:51:31;18.40;99.90
29803;DHT22;16702;50.898;4.662;2022-10-18T10:54:04;18.50;99.90
29803;DHT22;16702;50.898;4.662;2022-10-18T10:56:57;18.50;99.90
29803;DHT22;16702;50.898;4.662;2022-10-18T10:59:39;18.50;99.90
29803;DHT22;16702;50.898;4.662;2022-10-18T11:02:19;18.50;99.90
29803;DHT22;16702;50.898;4.662;2022-10-18T11:04:51;18.60;99.90
29803;DHT22;16702;50.898;4.662;2022-10-18T11:07:25;18.60;99.90
29803;DHT22;16702;50.898;4.662;2022-10-18T11:10:01;18.70;99.90
29803;DHT22;16702;50.898;4.662;2022-10-18T11:12:36;18.70;99.90
29803;DHT22;16702;50.898;4.662;2022-10-18T11:15:19;18.80;99.90
29803;DHT22;16702;50.898;4.662;2022-10-18T11:18:00;18.80;99.90
29803;DHT22;16702;50.898;4.662;2022-10-18T11:20:37;18.80;99.90
29803;DHT22;16702;50.898;4.662;2022-10-18T11:23:11;18.80;99.90
29803;DHT22;16702;50.898;4.662;2022-10-18T11:25:53;18.80;99.90
29803;DHT22;16702;50.898;4.662;2022-10-18T11:28:37;18.90;99.90
29803;DHT22;16702;50.898;4.662;2022-10-18T11:31:16;18.90;99.90
29803;DHT22;16702;50.898;4.662;2022-10-18T11:33:58;18.90;99.90
29803;DHT22;16702;50.898;4.662;2022-10-18T11:36:43;19.00;99.90
29803;DHT22;16702;50.898;4.662;2022-10-18T11:39:42;19.10;99.90
29803;DHT22;16702;50.898;4.662;2022-10-18T11:42:20;19.10;99.90
29803;DHT22;16702;50.898;4.662;2022-10-18T11:45:05;19.20;99.90
29803;DHT22;16702;50.898;4.662;2022-10-18T11:47:45;19.20;99.90
29803;DHT22;16702;50.898;4.662;2022-10-18T11:50:24;19.20;99.90
29803;DHT22;16702;50.898;4.662;2022-10-18T11:53:06;19.30;99.90
29803;DHT22;16702;50.898;4.662;2022-10-18T11:55:48;19.30;99.90
29803;DHT22;16702;50.898;4.662;2022-10-18T11:58:41;19.20;99.90
29803;DHT22;16702;50.898;4.662;2022-10-18T12:01:23;19.30;99.90
29803;DHT22;16702;50.898;4.662;2022-10-18T12:04:03;19.30;99.90
29803;DHT22;16702;50.898;4.662;2022-10-18T12:06:39;19.40;99.90
29803;DHT22;16702;50.898;4.662;2022-10-18T12:09:17;19.40;99.90
29803;DHT22;16702;50.898;4.662;2022-10-18T12:11:52;19.50;99.90
29803;DHT22;16702;50.898;4.662;2022-10-18T12:14:27;19.60;99.90
29803;DHT22;16702;50.898;4.662;2022-10-18T12:17:02;19.60;99.90
29803;DHT22;16702;50.898;4.662;2022-10-18T12:19:57;19.60;99.90
29803;DHT22;16702;50.898;4.662;2022-10-18T12:22:33;19.60;99.90
29803;DHT22;16702;50.898;4.662;2022-10-18T12:25:10;19.60;99.90
29803;DHT22;16702;50.898;4.662;2022-10-18T12:27:45;19.70;99.90
29803;DHT22;16702;50.898;4.662;2022-10-18T12:30:23;19.70;99.90
29803;DHT22;16702;50.898;4.662;2022-10-18T12:33:08;19.80;99.90
29803;DHT22;16702;50.898;4.662;2022-10-18T12:36:04;19.90;99.90
29803;DHT22;16702;50.898;4.662;2022-10-18T12:38:37;19.90;99.90
29803;DHT22;16702;50.898;4.662;2022-10-18T12:41:17;19.90;99.90
29803;DHT22;16702;50.898;4.662;2022-10-18T12:43:52;20.00;99.90
29803;DHT22;16702;50.898;4.662;2022-10-18T12:46:23;20.00;99.90
29803;DHT22;16702;50.898;4.662;2022-10-18T12:49:02;20.00;99.90
29803;DHT22;16702;50.898;4.662;2022-10-18T12:51:49;20.10;99.90
29803;DHT22;16702;50.898;4.662;2022-10-18T12:54:24;20.10;99.90
29803;DHT22;16702;50.898;4.662;2022-10-18T12:56:55;20.10;99.90
29803;DHT22;16702;50.898;4.662;2022-10-18T12:59:50;20.20;99.90
29803;DHT22;16702;50.898;4.662;2022-10-18T13:02:24;20.20;99.90
29803;DHT22;16702;50.898;4.662;2022-10-18T13:04:55;20.20;99.90
29803;DHT22;16702;50.898;4.662;2022-10-18T13:07:37;20.20;99.90
29803;DHT22;16702;50.898;4.662;2022-10-18T13:10:37;20.20;99.90
29803;DHT22;16702;50.898;4.662;2022-10-18T13:16:26;20.20;99.90
29803;DHT22;16702;50.898;4.662;2022-10-18T13:19:16;20.20;99.90
29803;DHT22;16702;50.898;4.662;2022-10-18T13:21:54;20.30;99.90
29803;DHT22;16702;50.898;4.662;2022-10-18T13:24:33;20.30;99.90
29803;DHT22;16702;50.898;4.662;2022-10-18T13:27:24;20.30;99.90
29803;DHT22;16702;50.898;4.662;2022-10-18T13:30:32;20.30;99.90
29803;DHT22;16702;50.898;4.662;2022-10-18T13:33:29;20.30;99.90
29803;DHT22;16702;50.898;4.662;2022-10-18T13:36:01;20.40;99.90
29803;DHT22;16702;50.898;4.662;2022-10-18T13:38:43;20.40;99.90
29803;DHT22;16702;50.898;4.662;2022-10-18T13:41:19;20.40;99.90
29803;DHT22;16702;50.898;4.662;2022-10-18T13:44:16;20.30;99.90
29803;DHT22;16702;50.898;4.662;2022-10-18T13:47:13;20.40;99.90
29803;DHT22;16702;50.898;4.662;2022-10-18T13:50:15;20.40;99.90
29803;DHT22;16702;50.898;4.662;2022-10-18T13:56:15;20.40;99.90
29803;DHT22;16702;50.898;4.662;2022-10-18T13:58:59;20.30;99.90
29803;DHT22;16702;50.898;4.662;2022-10-18T14:01:50;20.40;99.90
29803;DHT22;16702;50.898;4.662;2022-10-18T14:04:45;20.30;99.90
29803;DHT22;16702;50.898;4.662;2022-10-18T14:07:17;20.30;99.90
29803;DHT22;16702;50.898;4.662;2022-10-18T14:09:51;20.30;99.90
29803;DHT22;16702;50.898;4.662;2022-10-18T14:12:31;20.20;99.90
29803;DHT22;16702;50.898;4.662;2022-10-18T14:15:13;20.20;99.90
29803;DHT22;16702;50.898;4.662;2022-10-18T14:17:48;20.20;99.90
29803;DHT22;16702;50.898;4.662;2022-10-18T14:20:23;20.20;99.90
29803;DHT22;16702;50.898;4.662;2022-10-18T14:23:01;20.10;99.90
29803;DHT22;16702;50.898;4.662;2022-10-18T14:25:38;20.20;99.90
29803;DHT22;16702;50.898;4.662;2022-10-18T14:28:13;20.10;99.90
29803;DHT22;16702;50.898;4.662;2022-10-18T14:30:56;20.10;99.90
29803;DHT22;16702;50.898;4.662;2022-10-18T14:33:33;20.20;99.90
29803;DHT22;16702;50.898;4.662;2022-10-18T14:36:10;20.10;99.90
29803;DHT22;16702;50.898;4.662;2022-10-18T14:38:47;20.10;99.90
29803;DHT22;16702;50.898;4.662;2022-10-18T14:41:21;20.10;99.90
29803;DHT22;16702;50.898;4.662;2022-10-18T14:43:53;20.10;99.90
29803;DHT22;16702;50.898;4.662;2022-10-18T14:46:26;20.00;99.90
29803;DHT22;16702;50.898;4.662;2022-10-18T14:48:59;20.10;99.90
29803;DHT22;16702;50.898;4.662;2022-10-18T14:51:33;20.00;99.90
29803;DHT22;16702;50.898;4.662;2022-10-18T14:54:05;20.00;99.90
29803;DHT22;16702;50.898;4.662;2022-10-18T14:56:38;20.00;99.90
29803;DHT22;16702;50.898;4.662;2022-10-18T14:59:16;20.00;99.90
29803;DHT22;16702;50.898;4.662;2022-10-18T15:01:55;20.00;99.90
29803;DHT22;16702;50.898;4.662;2022-10-18T15:04:27;20.00;99.90
29803;DHT22;16702;50.898;4.662;2022-10-18T15:07:01;20.00;99.90
29803;DHT22;16702;50.898;4.662;2022-10-18T15:09:33;20.00;99.90
29803;DHT22;16702;50.898;4.662;2022-10-18T15:12:05;19.90;99.90
29803;DHT22;16702;50.898;4.662;2022-10-18T15:14:37;19.90;99.90
29803;DHT22;16702;50.898;4.662;2022-10-18T15:17:21;19.90;99.90
29803;DHT22;16702;50.898;4.662;2022-10-18T15:19:55;19.90;99.90
29803;DHT22;16702;50.898;4.662;2022-10-18T15:22:32;19.90;99.90
29803;DHT22;16702;50.898;4.662;2022-10-18T15:25:11;19.80;99.90
29803;DHT22;16702;50.898;4.662;2022-10-18T15:27:43;19.90;99.90
29803;DHT22;16702;50.898;4.662;2022-10-18T15:30:21;19.80;99.90
29803;DHT22;16702;50.898;4.662;2022-10-18T15:32:58;19.80;99.90
29803;DHT22;16702;50.898;4.662;2022-10-18T15:38:41;19.80;99.90
29803;DHT22;16702;50.898;4.662;2022-10-18T15:41:37;19.80;99.90
29803;DHT22;16702;50.898;4.662;2022-10-18T15:44:24;19.80;99.90
29803;DHT22;16702;50.898;4.662;2022-10-18T15:47:14;19.70;99.90
29803;DHT22;16702;50.898;4.662;2022-10-18T15:49:51;19.70;99.90
29803;DHT22;16702;50.898;4.662;2022-10-18T15:52:40;19.60;99.90
29803;DHT22;16702;50.898;4.662;2022-10-18T15:58:23;19.70;99.90
29803;DHT22;16702;50.898;4.662;2022-10-18T16:00:57;19.60;99.90
29803;DHT22;16702;50.898;4.662;2022-10-18T16:03:29;19.60;99.90
29803;DHT22;16702;50.898;4.662;2022-10-18T16:06:07;19.50;99.90
29803;DHT22;16702;50.898;4.662;2022-10-18T16:08:51;19.50;99.90
29803;DHT22;16702;50.898;4.662;2022-10-18T16:11:23;19.50;99.90
29803;DHT22;16702;50.898;4.662;2022-10-18T16:13:54;19.50;99.90
29803;DHT22;16702;50.898;4.662;2022-10-18T16:16:28;19.40;99.90
29803;DHT22;16702;50.898;4.662;2022-10-18T16:18:58;19.40;99.90
29803;DHT22;16702;50.898;4.662;2022-10-18T16:21:33;19.30;99.90
29803;DHT22;16702;50.898;4.662;2022-10-18T16:24:04;19.30;99.90
29803;DHT22;16702;50.898;4.662;2022-10-18T16:26:36;19.20;99.90
29803;DHT22;16702;50.898;4.662;2022-10-18T16:29:10;19.20;99.90
29803;DHT22;16702;50.898;4.662;2022-10-18T16:31:42;19.10;99.90
29803;DHT22;16702;50.898;4.662;2022-10-18T16:34:12;19.10;99.90
29803;DHT22;16702;50.898;4.662;2022-10-18T16:36:46;19.00;99.90
29803;DHT22;16702;50.898;4.662;2022-10-18T16:39:17;19.00;99.90
29803;DHT22;16702;50.898;4.662;2022-10-18T16:41:48;18.90;99.90
29803;DHT22;16702;50.898;4.662;2022-10-18T16:44:18;18.80;99.90